Time;durP1;ratioP1;P1;durP2;ratioP2;P2;SDS_P1;SDS_P2;PMS_P1;PMS_P2;Temp;Humidity;BMP_temperature;BMP_pressure;BME280_temperature;BME280_humidity;BME280_pressure;Samples;Min_cycle;Max_cycle;Signal;HPM_P1;HPM_P2
2022/03/26 00:00:37;;;;;;;38.05;22.60;;;;;;;6.30;100.00;103039.50;5271039;28;20084;-78
2022/03/26 00:03:09;;;;;;;37.97;23.55;;;;;;;6.50;100.00;103039.53;5272800;28;20390;-78
2022/03/26 00:05:41;;;;;;;39.63;23.98;;;;;;;6.16;100.00;103032.94;5275589;28;20186;-78
2022/03/26 00:08:13;;;;;;;36.05;22.10;;;;;;;6.29;100.00;103035.97;5276942;28;20493;-78
2022/03/26 00:10:45;;;;;;;45.47;23.27;;;;;;;6.28;100.00;103033.41;5272958;28;21409;-78
2022/03/26 00:13:17;;;;;;;35.80;21.63;;;;;;;6.17;100.00;103021.44;5272587;28;20025;-78
2022/03/26 00:15:48;;;;;;;39.45;23.45;;;;;;;6.21;100.00;103028.34;5272259;28;20040;-78
2022/03/26 00:18:20;;;;;;;37.47;22.25;;;;;;;6.12;100.00;103031.34;5272886;28;20086;-78
2022/03/26 00:20:51;;;;;;;38.85;22.90;;;;;;;5.87;100.00;103024.31;5271536;28;20032;-78
2022/03/26 00:23:23;;;;;;;39.53;22.92;;;;;;;6.15;100.00;103030.34;5274803;28;20043;-78
2022/03/26 00:25:55;;;;;;;37.90;21.77;;;;;;;6.02;100.00;103030.84;5278842;28;20029;-78
2022/03/26 00:28:27;;;;;;;37.40;22.83;;;;;;;5.84;100.00;103042.13;5277486;28;20030;-78
2022/03/26 00:30:58;;;;;;;34.55;21.95;;;;;;;5.85;100.00;103028.78;5258871;28;20069;-78
2022/03/26 00:33:30;;;;;;;34.10;20.85;;;;;;;5.62;100.00;103018.22;5280318;28;20117;-77
2022/03/26 00:36:02;;;;;;;42.50;24.90;;;;;;;5.61;100.00;103027.94;5280060;28;20017;-77
2022/03/26 00:38:33;;;;;;;41.63;25.10;;;;;;;5.76;100.00;103025.66;5279647;28;20404;-77
2022/03/26 00:41:04;;;;;;;40.92;24.33;;;;;;;5.47;100.00;103028.44;5269856;28;20068;-77
2022/03/26 00:43:35;;;;;;;38.90;23.10;;;;;;;5.43;100.00;103036.53;5275215;28;20120;-77
2022/03/26 00:46:07;;;;;;;37.40;23.08;;;;;;;5.58;100.00;103033.34;5275265;28;20342;-77
2022/03/26 00:48:38;;;;;;;37.03;24.70;;;;;;;5.40;100.00;103032.25;5277196;28;20040;-77
2022/03/26 00:51:09;;;;;;;37.55;20.60;;;;;;;5.43;100.00;103032.09;5274399;28;20032;-77
2022/03/26 00:53:42;;;;;;;28.92;18.70;;;;;;;5.31;100.00;103027.25;5274822;28;20048;-77
2022/03/26 00:56:13;;;;;;;34.67;22.23;;;;;;;5.26;100.00;103031.88;5271809;28;20037;-78
2022/03/26 00:58:45;;;;;;;37.70;24.85;;;;;;;5.25;100.00;103030.13;5256193;28;20493;-78
2022/03/26 01:01:16;;;;;;;46.60;23.85;;;;;;;4.87;100.00;103029.66;5253284;28;20022;-79
2022/03/26 01:03:47;;;;;;;41.85;24.98;;;;;;;5.17;100.00;103041.00;5277516;28;20112;-78
2022/03/26 01:06:18;;;;;;;46.15;25.35;;;;;;;5.18;100.00;103034.78;5250823;28;20033;-79
2022/03/26 01:08:50;;;;;;;41.63;24.65;;;;;;;5.03;100.00;103030.00;5274570;28;20469;-78
2022/03/26 01:11:22;;;;;;;34.03;21.52;;;;;;;5.11;100.00;103027.97;5272610;28;20025;-78
2022/03/26 01:13:56;;;;;;;37.28;23.83;;;;;;;4.90;100.00;103024.28;5258385;28;20112;-78
2022/03/26 01:16:27;;;;;;;40.38;22.40;;;;;;;5.00;100.00;103030.13;5271552;28;20116;-78
2022/03/26 01:18:59;;;;;;;32.35;19.25;;;;;;;4.82;100.00;103021.91;5274450;28;20432;-78
2022/03/26 01:21:30;;;;;;;33.05;19.70;;;;;;;4.95;100.00;103022.34;5281220;28;20029;-78
2022/03/26 01:24:02;;;;;;;31.75;19.15;;;;;;;4.73;100.00;103025.72;5278647;28;20030;-79
2022/03/26 01:26:34;;;;;;;33.13;19.05;;;;;;;4.90;100.00;103024.28;5275601;28;20041;-78
2022/03/26 01:29:06;;;;;;;29.63;18.75;;;;;;;4.90;100.00;103022.50;5274575;28;20033;-78
2022/03/26 01:31:37;;;;;;;30.70;20.38;;;;;;;5.09;100.00;103027.16;5274545;28;20553;-78
2022/03/26 01:34:08;;;;;;;28.60;18.15;;;;;;;4.83;100.00;103009.53;5272811;28;20033;-78
2022/03/26 01:36:40;;;;;;;31.02;19.63;;;;;;;4.92;100.00;103018.00;5279009;28;20801;-78
2022/03/26 01:39:11;;;;;;;33.92;20.98;;;;;;;4.95;100.00;103013.56;5273552;28;20124;-78
2022/03/26 01:41:42;;;;;;;29.85;19.67;;;;;;;4.84;100.00;103027.13;5255349;28;20034;-78
2022/03/26 01:44:14;;;;;;;34.03;18.63;;;;;;;4.68;100.00;103027.66;5274301;28;20040;-78
2022/03/26 01:46:52;;;;;;;31.17;19.83;;;;;;;4.62;100.00;103033.13;5262281;28;20017;-78
2022/03/26 01:49:25;;;;;;;45.50;26.05;;;;;;;4.27;100.00;103039.53;5274572;28;20561;-78
2022/03/26 01:51:59;;;;;;;37.05;22.05;;;;;;;4.44;100.00;103036.38;5272357;28;20115;-78
2022/03/26 01:54:31;;;;;;;37.13;22.33;;;;;;;4.50;100.00;103044.09;5275009;28;20389;-78
2022/03/26 01:57:04;;;;;;;38.83;23.90;;;;;;;4.30;100.00;103026.25;5270538;28;20039;-78
2022/03/26 01:59:35;;;;;;;47.10;24.90;;;;;;;4.41;100.00;103020.63;5269918;28;20021;-78
2022/03/26 02:02:07;;;;;;;43.95;25.33;;;;;;;4.38;100.00;103040.06;5271730;28;20021;-78
2022/03/26 02:04:38;;;;;;;42.72;24.73;;;;;;;4.38;100.00;103026.00;5271533;28;20031;-78
2022/03/26 02:07:09;;;;;;;40.55;24.48;;;;;;;4.40;100.00;103022.41;5266339;28;20033;-78
2022/03/26 02:09:43;;;;;;;38.42;23.02;;;;;;;4.44;100.00;103036.38;5273247;28;29190;-78
2022/03/26 02:12:26;;;;;;;43.58;22.48;;;;;;;4.38;100.00;103026.00;5250413;28;20052;-78
2022/03/26 02:14:58;;;;;;;39.67;25.02;;;;;;;4.37;100.00;103032.22;5267420;28;20069;-78
2022/03/26 02:17:30;;;;;;;41.58;24.60;;;;;;;4.62;100.00;103029.63;5268948;28;20064;-78
2022/03/26 02:20:04;;;;;;;44.70;25.58;;;;;;;4.69;100.00;103031.16;5276413;28;20025;-78
2022/03/26 02:22:37;;;;;;;40.55;25.48;;;;;;;4.52;100.00;103027.28;5278963;28;20021;-78
2022/03/26 02:25:09;;;;;;;47.50;26.05;;;;;;;4.47;100.00;103028.34;5254273;28;20052;-78
2022/03/26 02:27:41;;;;;;;37.95;19.98;;;;;;;4.37;100.00;103030.44;5276973;28;20022;-78
2022/03/26 02:30:12;;;;;;;44.45;26.42;;;;;;;4.38;100.00;103026.00;5279427;28;20052;-78
2022/03/26 02:32:43;;;;;;;36.85;20.15;;;;;;;4.55;100.00;103024.53;5275335;28;20029;-78
2022/03/26 02:35:14;;;;;;;39.53;23.65;;;;;;;4.45;100.00;103016.94;5275331;28;20039;-78
2022/03/26 02:37:46;;;;;;;33.83;20.55;;;;;;;4.35;100.00;103027.81;5271935;28;31862;-78
2022/03/26 02:40:18;;;;;;;51.15;26.33;;;;;;;4.44;100.00;103028.47;5277839;28;20490;-78
2022/03/26 02:42:49;;;;;;;43.28;23.90;;;;;;;4.48;100.00;103020.34;5269922;28;20175;-78
2022/03/26 02:45:21;;;;;;;35.08;21.73;;;;;;;4.35;100.00;103014.63;5273332;28;20148;-78
2022/03/26 02:47:52;;;;;;;40.47;25.17;;;;;;;4.34;100.00;103015.50;5271151;28;20052;-78
2022/03/26 02:50:24;;;;;;;41.85;26.05;;;;;;;4.31;100.00;103031.50;5280611;28;20120;-78
2022/03/26 02:52:55;;;;;;;39.35;23.42;;;;;;;4.39;100.00;103025.94;5280141;28;20052;-78
2022/03/26 02:55:26;;;;;;;39.95;23.63;;;;;;;4.36;100.00;103023.41;5282442;28;20021;-78
2022/03/26 02:57:57;;;;;;;37.15;23.08;;;;;;;4.36;100.00;103023.41;5280825;28;20017;-78
2022/03/26 03:00:29;;;;;;;37.75;21.50;;;;;;;4.16;100.00;103016.97;5277135;28;20370;-78
2022/03/26 03:03:00;;;;;;;40.70;20.73;;;;;;;4.41;100.00;103032.03;5272433;28;20025;-78
2022/03/26 03:05:33;;;;;;;39.67;23.30;;;;;;;4.35;100.00;103014.63;5281600;28;20064;-77
2022/03/26 03:08:04;;;;;;;37.33;22.33;;;;;;;4.46;100.00;103024.84;5277455;28;20036;-78
2022/03/26 03:10:36;;;;;;;33.40;20.50;;;;;;;4.40;100.00;103021.53;5274301;28;20385;-77
2022/03/26 03:13:07;;;;;;;37.60;22.08;;;;;;;4.50;100.00;103029.09;5283187;28;20032;-78
2022/03/26 03:15:39;;;;;;;36.63;20.02;;;;;;;4.44;100.00;103036.38;5282941;28;20367;-78
2022/03/26 03:18:10;;;;;;;33.55;21.95;;;;;;;4.29;100.00;103035.94;5281633;28;20040;-78
2022/03/26 03:20:41;;;;;;;34.60;21.90;;;;;;;4.43;100.00;103032.00;5280725;28;20126;-78
2022/03/26 03:23:13;;;;;;;40.40;23.85;;;;;;;4.32;100.00;103029.69;5282119;28;20025;-78
2022/03/26 03:25:45;;;;;;;31.98;20.73;;;;;;;4.37;100.00;103038.34;5276157;28;20424;-78
2022/03/26 03:28:16;;;;;;;39.72;22.98;;;;;;;4.05;100.00;103029.66;5276212;28;20103;-78
2022/03/26 03:30:47;;;;;;;37.05;23.75;;;;;;;4.30;100.00;103028.91;5279487;28;20038;-77
2022/03/26 03:33:19;;;;;;;35.38;21.95;;;;;;;3.91;100.00;103031.81;5278550;28;20036;-78
2022/03/26 03:35:50;;;;;;;44.75;25.55;;;;;;;4.02;100.00;103040.31;5278486;28;20025;-78
2022/03/26 03:38:22;;;;;;;33.05;19.55;;;;;;;3.74;100.00;103016.50;5275963;28;20124;-78
2022/03/26 03:40:53;;;;;;;30.90;18.95;;;;;;;3.82;100.00;103024.19;5278447;28;20037;-78
2022/03/26 03:43:25;;;;;;;39.05;22.20;;;;;;;3.68;100.00;103033.38;5273282;28;20033;-78
2022/03/26 03:45:56;;;;;;;38.30;22.52;;;;;;;3.54;100.00;103017.03;5269862;28;20088;-78
2022/03/26 03:48:28;;;;;;;38.17;23.58;;;;;;;3.33;100.00;103024.69;5277352;28;20040;-78
2022/03/26 03:50:59;;;;;;;32.88;19.38;;;;;;;3.40;100.00;103035.91;5271870;28;20413;-78
2022/03/26 03:53:30;;;;;;;38.15;22.92;;;;;;;3.22;100.00;103038.13;5278556;28;20033;-78
2022/03/26 03:56:02;;;;;;;38.83;21.10;;;;;;;3.36;100.00;103036.91;5270283;28;43088;-78
2022/03/26 03:58:34;;;;;;;37.38;22.10;;;;;;;3.10;100.00;103035.81;5272508;28;20025;-78
2022/03/26 04:01:05;;;;;;;36.45;22.17;;;;;;;3.20;100.00;103047.00;5274970;28;20028;-78
2022/03/26 04:03:36;;;;;;;37.45;21.35;;;;;;;3.30;100.00;103048.50;5272419;28;20052;-78
2022/03/26 04:06:08;;;;;;;44.75;23.77;;;;;;;3.11;100.00;103039.34;5270935;28;20036;-78
2022/03/26 04:08:39;;;;;;;44.15;25.13;;;;;;;3.08;100.00;103045.53;5276217;28;20036;-78
2022/03/26 04:11:11;;;;;;;46.95;26.42;;;;;;;3.17;100.00;103052.34;5277640;28;20409;-78
2022/03/26 04:13:42;;;;;;;39.65;23.35;;;;;;;3.27;100.00;103048.56;5274428;28;20396;-78
2022/03/26 04:16:13;;;;;;;39.97;23.90;;;;;;;2.88;100.00;103045.22;5279620;28;20090;-78
2022/03/26 04:18:45;;;;;;;48.30;24.80;;;;;;;3.17;100.00;103049.72;5273298;28;20398;-78
2022/03/26 04:21:16;;;;;;;46.25;27.27;;;;;;;3.06;100.00;103043.88;5277006;28;20025;-78
2022/03/26 04:23:47;;;;;;;41.60;24.38;;;;;;;2.86;100.00;103049.63;5269600;28;20057;-78
2022/03/26 04:26:19;;;;;;;45.55;23.65;;;;;;;3.12;100.00;103046.34;5272065;28;20033;-78
2022/03/26 04:28:50;;;;;;;43.15;24.02;;;;;;;3.25;100.00;103060.09;5274588;28;20390;-78
2022/03/26 04:31:21;;;;;;;35.97;19.23;;;;;;;3.27;100.00;103035.38;5270746;28;20056;-79
2022/03/26 04:33:53;;;;;;;48.58;24.83;;;;;;;3.34;100.00;103057.19;5273668;28;42194;-79
2022/03/26 04:36:24;;;;;;;42.15;23.48;;;;;;;3.40;100.00;103055.25;5270738;28;20037;-79
2022/03/26 04:38:57;;;;;;;40.03;21.65;;;;;;;3.52;100.00;103039.97;5274836;28;20045;-79
2022/03/26 04:41:28;;;;;;;38.75;22.95;;;;;;;3.63;100.00;103051.13;5277689;28;20118;-79
2022/03/26 04:44:00;;;;;;;43.83;23.02;;;;;;;3.67;100.00;103036.06;5276704;28;20051;-79
2022/03/26 04:46:32;;;;;;;41.65;22.88;;;;;;;3.71;100.00;103053.53;5278938;28;20021;-79
2022/03/26 04:49:04;;;;;;;44.75;25.88;;;;;;;3.84;100.00;103049.63;5272898;28;20459;-79
2022/03/26 04:51:35;;;;;;;51.97;27.25;;;;;;;3.95;100.00;103055.47;5276709;28;20100;-79
2022/03/26 04:54:07;;;;;;;41.20;23.75;;;;;;;3.87;100.00;103044.25;5270190;28;20021;-78
2022/03/26 04:56:38;;;;;;;35.53;22.05;;;;;;;3.98;100.00;103036.03;5271326;28;20074;-78
2022/03/26 04:59:09;;;;;;;36.50;20.50;;;;;;;3.96;100.00;103044.00;5278575;28;20138;-78
2022/03/26 05:01:44;;;;;;;53.22;24.40;;;;;;;3.94;100.00;103037.91;5276159;28;20085;-78
2022/03/26 05:04:15;;;;;;;37.30;20.13;;;;;;;3.73;100.00;103047.28;5279538;28;20361;-78
2022/03/26 05:06:46;;;;;;;35.15;19.77;;;;;;;3.66;100.00;103050.16;5276139;28;20021;-78
2022/03/26 05:09:18;;;;;;;37.58;21.02;;;;;;;3.34;100.00;103047.50;5281176;28;20110;-78
2022/03/26 05:11:49;;;;;;;41.40;21.80;;;;;;;3.15;100.00;103039.22;5263183;28;20032;-79
2022/03/26 05:14:20;;;;;;;43.17;25.73;;;;;;;3.00;100.00;103052.81;5275882;28;40967;-77
2022/03/26 05:16:52;;;;;;;50.20;25.70;;;;;;;2.65;100.00;103042.22;5279007;28;20074;-77
2022/03/26 05:19:23;;;;;;;39.60;23.65;;;;;;;2.53;100.00;103049.56;5280581;28;20032;-77
2022/03/26 05:21:54;;;;;;;35.92;22.02;;;;;;;2.49;100.00;103051.41;5280633;28;20025;-77
2022/03/26 05:24:26;;;;;;;42.35;24.20;;;;;;;2.24;100.00;103049.34;5283670;28;21940;-76
2022/03/26 05:26:57;;;;;;;39.92;22.63;;;;;;;2.24;100.00;103054.63;5285127;28;20029;-78
2022/03/26 05:29:29;;;;;;;40.10;21.13;;;;;;;2.19;100.00;103058.22;5282486;28;20045;-77
2022/03/26 05:32:00;;;;;;;38.85;22.63;;;;;;;2.08;100.00;103064.59;5281105;28;20040;-77
2022/03/26 05:34:33;;;;;;;42.50;24.30;;;;;;;2.09;100.00;103062.84;5263468;28;20397;-77
2022/03/26 05:37:04;;;;;;;35.80;21.10;;;;;;;2.44;100.00;103069.94;5277477;28;20029;-77
2022/03/26 05:39:36;;;;;;;46.47;24.50;;;;;;;2.66;100.00;103061.53;5281090;28;20068;-77
2022/03/26 05:42:07;;;;;;;50.42;26.20;;;;;;;2.83;100.00;103071.69;5279182;28;20597;-77
2022/03/26 05:44:39;;;;;;;38.25;22.17;;;;;;;2.81;100.00;103062.94;5280393;28;20037;-76
2022/03/26 05:47:10;;;;;;;46.45;24.25;;;;;;;3.18;100.00;103077.84;5279995;28;20029;-77
2022/03/26 05:49:41;;;;;;;46.92;23.98;;;;;;;3.22;100.00;103085.59;5279645;28;20539;-76
2022/03/26 05:52:13;;;;;;;44.55;24.98;;;;;;;3.41;100.00;103080.72;5263272;28;20025;-76
2022/03/26 05:54:44;;;;;;;42.72;25.70;;;;;;;3.40;100.00;103093.94;5280610;28;20496;-77
2022/03/26 05:57:15;;;;;;;53.97;27.27;;;;;;;3.38;100.00;103087.84;5264592;28;20123;-77
2022/03/26 05:59:48;;;;;;;43.55;25.23;;;;;;;3.52;100.00;103098.03;5282465;28;20036;-76
2022/03/26 06:02:21;;;;;;;50.83;25.83;;;;;;;3.65;100.00;103103.88;5283448;28;20052;-77
2022/03/26 06:04:52;;;;;;;45.38;25.85;;;;;;;3.67;100.00;103107.31;5280341;28;20025;-77
2022/03/26 06:07:24;;;;;;;43.70;24.33;;;;;;;4.00;100.00;103107.25;5279897;28;20021;-77
2022/03/26 06:09:55;;;;;;;43.33;25.58;;;;;;;4.05;100.00;103108.00;5281972;28;20029;-78
2022/03/26 06:12:26;;;;;;;42.22;23.63;;;;;;;4.08;100.00;103097.34;5274684;28;20055;-78
2022/03/26 06:15:00;;;;;;;44.85;24.10;;;;;;;4.20;100.00;103106.69;5277738;28;20031;-79
2022/03/26 06:17:34;;;;;;;45.10;25.73;;;;;;;4.32;100.00;103106.31;5281818;28;20083;-80
2022/03/26 06:20:05;;;;;;;39.88;22.48;;;;;;;4.46;100.00;103109.41;5262393;28;20033;-80
2022/03/26 06:22:43;;;;;;;41.90;24.98;;;;;;;4.34;100.00;103073.66;5247393;28;20041;-81
2022/03/26 06:25:17;;;;;;;35.65;21.85;;;;;;;4.60;100.00;103103.69;5276911;28;20025;-80
2022/03/26 06:27:51;;;;;;;38.83;23.67;;;;;;;4.35;100.00;103063.97;5276637;28;20044;-79
2022/03/26 06:30:22;;;;;;;39.70;23.55;;;;;;;4.73;100.00;103112.09;5262825;28;20041;-79
2022/03/26 06:32:56;;;;;;;44.42;26.17;;;;;;;4.72;100.00;103105.09;5278367;28;20021;-79
2022/03/26 06:35:30;;;;;;;38.72;25.00;;;;;;;4.78;100.00;103112.81;5280805;28;20473;-79
2022/03/26 06:38:02;;;;;;;43.50;25.80;;;;;;;4.66;100.00;103077.09;5276952;28;20428;-79
2022/03/26 06:40:33;;;;;;;48.25;25.85;;;;;;;5.08;100.00;103112.72;5275680;28;20057;-80
2022/03/26 06:43:06;;;;;;;44.60;26.83;;;;;;;5.33;100.00;103107.50;5281965;28;20025;-80
2022/03/26 06:45:38;;;;;;;44.17;27.65;;;;;;;5.92;100.00;103119.50;5281962;28;20374;-78
2022/03/26 06:48:10;;;;;;;46.20;27.08;;;;;;;6.50;100.00;103111.13;5282519;28;20021;-79
2022/03/26 06:50:44;;;;;;;42.45;25.20;;;;;;;7.19;100.00;103110.97;5280523;28;20032;-79
2022/03/26 06:53:20;;;;;;;40.10;26.15;;;;;;;7.66;100.00;103116.94;5278041;28;20381;-79
2022/03/26 06:55:54;;;;;;;42.20;25.70;;;;;;;8.26;100.00;103115.09;5281477;28;20036;-79
2022/03/26 06:58:25;;;;;;;43.70;25.23;;;;;;;8.94;100.00;103125.19;5280784;28;20547;-79
2022/03/26 07:00:58;;;;;;;39.47;23.38;;;;;;;9.36;100.00;103118.66;5279111;28;20186;-79
2022/03/26 07:03:30;;;;;;;36.08;22.08;;;;;;;9.80;100.00;103117.22;5279339;28;20037;-79
2022/03/26 07:06:02;;;;;;;39.03;22.23;;;;;;;10.42;100.00;103124.59;5262466;28;20021;-79
2022/03/26 07:08:34;;;;;;;37.85;23.55;;;;;;;10.64;100.00;103124.25;5280343;28;20037;-79
2022/03/26 07:11:05;;;;;;;37.70;23.67;;;;;;;11.25;100.00;103126.00;5258716;28;20033;-79
2022/03/26 07:13:39;;;;;;;30.45;22.33;;;;;;;12.01;100.00;103121.44;5260773;28;20335;-80
2022/03/26 07:16:11;;;;;;;36.85;22.05;;;;;;;12.36;100.00;103127.28;5280943;28;20057;-79
2022/03/26 07:18:42;;;;;;;35.17;21.92;;;;;;;12.62;100.00;103120.22;5263672;28;20068;-79
2022/03/26 07:21:16;;;;;;;32.75;21.90;;;;;;;13.09;100.00;103126.03;5263962;28;20036;-80
2022/03/26 07:23:51;;;;;;;37.95;23.13;;;;;;;13.41;100.00;103123.03;5263584;28;20086;-80
2022/03/26 07:26:25;;;;;;;35.58;22.70;;;;;;;14.40;100.00;103124.13;5282333;28;20028;-80
2022/03/26 07:28:56;;;;;;;37.58;23.10;;;;;;;14.71;100.00;103120.09;5282065;28;20095;-79
2022/03/26 07:31:28;;;;;;;36.28;23.05;;;;;;;14.69;98.76;103124.69;5278970;28;38043;-79
2022/03/26 07:34:00;;;;;;;34.15;22.58;;;;;;;15.63;94.99;103121.09;5277686;28;20075;-80
2022/03/26 07:36:32;;;;;;;37.33;22.85;;;;;;;15.56;80.74;103113.63;5265728;28;20059;-80
2022/03/26 07:39:03;;;;;;;42.45;24.13;;;;;;;16.31;78.75;103126.50;5264050;28;21002;-79
2022/03/26 07:41:35;;;;;;;38.03;24.23;;;;;;;17.49;72.23;103136.50;5259215;28;20044;-79
2022/03/26 07:44:07;;;;;;;41.97;23.83;;;;;;;17.29;63.88;103122.03;5280596;28;20053;-79
2022/03/26 07:46:38;;;;;;;35.25;22.88;;;;;;;18.04;59.90;103137.09;5278260;28;20041;-79
2022/03/26 07:49:09;;;;;;;28.17;21.48;;;;;;;18.25;58.50;103138.84;5278603;28;20024;-80
2022/03/26 07:51:41;;;;;;;36.90;22.05;;;;;;;18.77;51.50;103135.97;5282265;28;20029;-80
2022/03/26 07:54:12;;;;;;;42.00;23.88;;;;;;;18.56;53.68;103138.81;5281297;28;20035;-80
2022/03/26 07:56:43;;;;;;;35.28;23.92;;;;;;;19.31;50.18;103136.44;5263046;28;20104;-80
2022/03/26 07:59:15;;;;;;;34.53;21.58;;;;;;;20.39;44.17;103132.34;5281451;28;20482;-80
2022/03/26 08:01:46;;;;;;;39.58;22.92;;;;;;;20.54;42.63;103136.22;5282585;28;20036;-80
2022/03/26 08:04:17;;;;;;;30.25;21.30;;;;;;;20.73;43.54;103142.56;5281994;28;20037;-80
2022/03/26 08:06:49;;;;;;;31.52;20.85;;;;;;;21.03;41.28;103129.63;5281700;28;22578;-80
2022/03/26 08:09:20;;;;;;;31.55;21.88;;;;;;;21.77;39.32;103141.03;5280201;28;20021;-80
2022/03/26 08:11:51;;;;;;;31.75;21.55;;;;;;;22.87;37.99;103141.09;5263700;28;21233;-80
2022/03/26 08:14:22;;;;;;;30.35;21.27;;;;;;;22.64;38.29;103139.00;5279890;28;20154;-80
2022/03/26 08:16:54;;;;;;;35.75;22.25;;;;;;;23.82;35.62;103140.53;5281448;28;20454;-80
2022/03/26 08:19:25;;;;;;;27.57;18.87;;;;;;;23.75;35.45;103140.34;5282303;28;20025;-80
2022/03/26 08:21:56;;;;;;;33.00;21.08;;;;;;;23.47;34.57;103142.63;5275714;28;20295;-80
2022/03/26 08:24:28;;;;;;;31.67;18.52;;;;;;;24.43;34.88;103147.06;5275040;28;20045;-80
2022/03/26 08:26:59;;;;;;;35.40;21.15;;;;;;;25.24;33.61;103154.84;5270181;28;20021;-78
2022/03/26 08:29:30;;;;;;;26.30;19.25;;;;;;;25.64;32.36;103147.31;5261599;28;20037;-78
2022/03/26 08:32:04;;;;;;;29.77;20.15;;;;;;;26.43;30.20;103149.44;5275270;28;20021;-79
2022/03/26 08:34:35;;;;;;;28.77;20.30;;;;;;;27.07;29.78;103153.25;5281749;28;20029;-78
2022/03/26 08:37:07;;;;;;;30.90;19.98;;;;;;;27.37;28.72;103136.66;5282250;28;20075;-79
2022/03/26 08:39:38;;;;;;;28.48;19.80;;;;;;;27.61;27.13;103147.19;5274432;28;20053;-81
2022/03/26 08:42:09;;;;;;;26.70;19.58;;;;;;;27.54;28.45;103149.00;5270023;28;20366;-80
2022/03/26 08:44:41;;;;;;;30.33;17.92;;;;;;;27.67;27.44;103164.69;5277110;28;20025;-80
2022/03/26 08:47:12;;;;;;;28.17;19.47;;;;;;;28.44;26.11;103152.63;5261647;28;20052;-80
2022/03/26 08:49:45;;;;;;;26.73;18.83;;;;;;;27.72;27.25;103153.97;5279285;28;20292;-80
2022/03/26 08:52:17;;;;;;;29.48;17.80;;;;;;;28.44;26.43;103163.59;5280736;28;20489;-80
2022/03/26 08:54:49;;;;;;;28.13;20.08;;;;;;;28.34;26.37;103163.16;5261891;28;20032;-80
2022/03/26 08:57:20;;;;;;;27.17;18.58;;;;;;;28.91;25.73;103161.00;5279083;28;20025;-80
2022/03/26 08:59:52;;;;;;;29.63;19.23;;;;;;;29.35;25.62;103155.97;5280657;28;20021;-80
2022/03/26 09:02:23;;;;;;;23.38;17.55;;;;;;;29.08;25.93;103158.66;5276100;28;20288;-80
2022/03/26 09:04:56;;;;;;;30.33;18.98;;;;;;;28.60;26.17;103158.84;5277100;28;20048;-80
2022/03/26 09:07:27;;;;;;;27.98;18.13;;;;;;;28.82;25.52;103154.84;5281725;28;20071;-80
2022/03/26 09:09:59;;;;;;;24.50;18.92;;;;;;;29.63;24.54;103155.69;5282314;28;20029;-80
2022/03/26 09:12:30;;;;;;;27.25;19.55;;;;;;;30.62;23.99;103163.78;5260066;28;20049;-79
2022/03/26 09:15:03;;;;;;;29.23;22.58;;;;;;;30.50;23.73;103163.63;5259175;28;20531;-80
2022/03/26 09:17:36;;;;;;;29.55;22.58;;;;;;;31.35;23.25;103168.75;5282042;28;20035;-80
2022/03/26 09:20:08;;;;;;;31.13;21.05;;;;;;;31.32;23.39;103162.84;5263623;28;20025;-80
2022/03/26 09:22:40;;;;;;;31.45;20.77;;;;;;;31.56;22.76;103159.22;5281273;28;20049;-80
2022/03/26 09:25:12;;;;;;;28.73;19.73;;;;;;;31.12;22.84;103160.25;5282166;28;20052;-79
2022/03/26 09:27:43;;;;;;;26.75;19.48;;;;;;;31.40;22.55;103160.63;5279030;28;20488;-80
2022/03/26 09:30:15;;;;;;;26.73;18.97;;;;;;;33.67;20.86;103160.19;5277432;28;20030;-81
2022/03/26 09:32:47;;;;;;;28.05;18.20;;;;;;;32.59;20.84;103167.69;5270217;28;20270;-80
2022/03/26 09:35:18;;;;;;;25.77;17.83;;;;;;;33.28;20.40;103167.28;5274951;28;20021;-80
2022/03/26 09:37:49;;;;;;;26.70;17.02;;;;;;;33.99;19.85;103158.91;5280480;28;20025;-80
2022/03/26 09:40:22;;;;;;;24.77;17.77;;;;;;;33.83;19.88;103160.50;5270256;28;20426;-81
2022/03/26 09:42:54;;;;;;;25.73;17.73;;;;;;;34.26;19.90;103157.28;5279326;28;20272;-81
2022/03/26 09:45:25;;;;;;;24.47;18.47;;;;;;;34.18;19.40;103154.84;5280150;28;20048;-80
2022/03/26 09:47:57;;;;;;;25.23;17.63;;;;;;;33.61;20.04;103152.84;5281733;28;20357;-80
2022/03/26 09:50:28;;;;;;;24.33;17.83;;;;;;;33.84;20.01;103157.50;5282042;28;20378;-80
2022/03/26 09:52:59;;;;;;;25.60;15.93;;;;;;;34.18;19.47;103154.03;5280402;28;20021;-80
2022/03/26 09:55:32;;;;;;;23.15;16.35;;;;;;;35.19;18.82;103156.13;5281658;28;20082;-80
2022/03/26 09:58:03;;;;;;;23.33;16.95;;;;;;;35.34;18.83;103148.03;5263181;28;20064;-80
2022/03/26 10:00:34;;;;;;;25.50;16.85;;;;;;;35.11;18.59;103149.03;5261726;28;20116;-80
2022/03/26 10:03:06;;;;;;;24.30;16.77;;;;;;;36.65;18.23;103151.00;5269530;28;20032;-80
2022/03/26 10:05:37;;;;;;;23.30;15.73;;;;;;;35.48;18.69;103150.44;5281890;28;20093;-79
2022/03/26 10:08:22;;;;;;;26.20;16.47;;;;;;;35.51;19.09;103150.78;5281841;28;20021;-80
2022/03/26 10:10:55;;;;;;;26.27;15.88;;;;;;;34.21;19.14;103143.31;5265110;28;20277;-80
2022/03/26 10:13:38;;;;;;;21.70;15.93;;;;;;;35.69;18.34;103151.56;5265941;28;20478;-80
2022/03/26 10:16:12;;;;;;;32.75;16.23;;;;;;;34.97;18.75;103148.56;5262495;28;20359;-80
2022/03/26 10:18:46;;;;;;;22.25;15.73;;;;;;;33.76;19.14;103146.81;5280106;28;20031;-80
2022/03/26 10:21:20;;;;;;;26.25;15.20;;;;;;;36.04;18.16;103150.34;5261340;28;20025;-80
2022/03/26 10:23:54;;;;;;;21.73;14.82;;;;;;;35.63;18.19;103147.06;5276350;28;20128;-81
2022/03/26 10:26:25;;;;;;;21.33;14.88;;;;;;;33.86;18.56;103140.66;5260175;28;20037;-79
2022/03/26 10:28:58;;;;;;;20.20;13.48;;;;;;;34.60;18.20;103151.78;5275982;28;20029;-81
2022/03/26 10:34:20;;;;;;;18.23;11.48;;;;;;;34.48;17.03;103148.25;5281068;28;20036;-81
2022/03/26 10:36:54;;;;;;;21.25;11.55;;;;;;;35.06;17.25;103151.75;5281515;28;20074;-80
2022/03/26 10:39:27;;;;;;;15.98;10.52;;;;;;;36.39;16.67;103147.13;5263926;28;20687;-80
2022/03/26 10:41:58;;;;;;;17.80;12.63;;;;;;;36.16;16.05;103134.38;5263972;28;20018;-80
2022/03/26 10:44:30;;;;;;;18.50;13.20;;;;;;;36.27;15.97;103133.41;5228294;28;20032;-79
2022/03/26 10:47:04;;;;;;;20.05;14.13;;;;;;;35.12;16.55;103136.88;5257208;28;20272;-80
2022/03/26 10:49:37;;;;;;;19.15;13.30;;;;;;;35.63;16.41;103141.50;5284513;28;20115;-80
2022/03/26 10:52:15;;;;;;;19.98;13.75;;;;;;;36.00;16.67;103125.03;5285096;28;20025;-81
2022/03/26 10:54:48;;;;;;;22.88;13.82;;;;;;;36.55;15.06;103122.28;5283868;28;20021;-81
2022/03/26 10:57:24;;;;;;;18.50;13.25;;;;;;;36.66;16.14;103124.88;5261765;28;20040;-81
2022/03/26 10:59:56;;;;;;;18.70;13.98;;;;;;;36.96;15.42;103130.94;5262762;28;20045;-81
2022/03/26 11:02:27;;;;;;;19.25;12.88;;;;;;;36.46;15.71;103125.53;5279995;28;20623;-81
2022/03/26 11:04:59;;;;;;;20.20;13.23;;;;;;;37.33;15.49;103125.41;5282621;28;20032;-81
2022/03/26 11:07:31;;;;;;;20.08;11.73;;;;;;;35.50;16.02;103126.06;5281642;28;20041;-79
2022/03/26 11:10:05;;;;;;;17.95;11.48;;;;;;;37.06;15.75;103126.31;5278699;28;20037;-81
2022/03/26 11:12:43;;;;;;;17.52;11.88;;;;;;;36.32;15.85;103124.28;5279836;28;20455;-81
2022/03/26 11:15:23;;;;;;;16.88;10.77;;;;;;;36.70;16.41;103123.28;5284722;28;20034;-81
2022/03/26 11:18:06;;;;;;;16.17;12.48;;;;;;;36.92;16.07;103111.19;5284131;28;20100;-81
2022/03/26 11:21:06;;;;;;;19.75;12.77;;;;;;;36.89;16.21;103115.34;5283835;28;20037;-79
2022/03/26 11:24:02;;;;;;;23.15;11.15;;;;;;;35.57;16.91;103113.69;5265161;28;20116;-79
2022/03/26 11:27:02;;;;;;;15.68;11.20;;;;;;;36.18;16.89;103109.13;5277473;28;20065;-79
2022/03/26 11:29:44;;;;;;;18.95;10.77;;;;;;;36.29;16.99;103108.13;5272180;28;20046;-79
2022/03/26 11:32:34;;;;;;;15.25;11.27;;;;;;;38.16;16.06;103112.66;5282252;28;20048;-80
2022/03/26 11:35:17;;;;;;;12.80;10.50;;;;;;;38.08;16.34;103105.66;5285863;28;20029;-81